Time;durP1;ratioP1;P1;durP2;ratioP2;P2;SDS_P1;SDS_P2;PMS_P1;PMS_P2;Temp;Humidity;BMP_temperature;BMP_pressure;BME280_temperature;BME280_humidity;BME280_pressure;Samples;Min_cycle;Max_cycle;Signal;HPM_P1;HPM_P2
2024/01/21 00:01:39;;;;;;;3.22;2.00;;;1.40;1.00;;;;;;5013658;28;20117;-65
2024/01/21 00:04:07;;;;;;;4.65;2.90;;;1.50;1.00;;;;;;5013127;28;20361;-65
2024/01/21 00:06:33;;;;;;;4.20;2.53;;;1.40;1.00;;;;;;5013449;28;20049;-65
2024/01/21 00:08:58;;;;;;;4.13;2.28;;;1.50;1.00;;;;;;5013499;28;20030;-65
2024/01/21 00:11:24;;;;;;;4.65;2.72;;;1.40;1.00;;;;;;5013295;28;20026;-65
2024/01/21 00:13:49;;;;;;;8.07;2.65;;;1.50;1.00;;;;;;5013370;28;20037;-65
2024/01/21 00:16:15;;;;;;;5.45;2.50;;;1.50;1.00;;;;;;5013482;28;20038;-65
2024/01/21 00:18:41;;;;;;;3.38;2.17;;;1.50;1.00;;;;;;5013441;28;20387;-65
2024/01/21 00:21:06;;;;;;;3.03;2.30;;;1.50;1.00;;;;;;5013171;28;20030;-65
2024/01/21 00:23:32;;;;;;;3.78;2.33;;;1.50;1.00;;;;;;5013119;28;20053;-65
2024/01/21 00:25:58;;;;;;;3.25;2.25;;;1.60;1.00;;;;;;5013264;28;20033;-65
2024/01/21 00:28:24;;;;;;;3.90;2.22;;;1.70;1.00;;;;;;5013181;28;20030;-65
2024/01/21 00:30:50;;;;;;;4.32;2.58;;;1.70;40.40;;;;;;5013388;28;20458;-65
2024/01/21 00:33:15;;;;;;;6.35;2.30;;;1.70;46.40;;;;;;5013144;28;20044;-66
2024/01/21 00:35:41;;;;;;;4.53;2.20;;;1.80;99.90;;;;;;5013310;28;20026;-65
2024/01/21 00:38:06;;;;;;;4.70;2.33;;;1.70;99.90;;;;;;5012880;28;20025;-65
2024/01/21 00:40:33;;;;;;;4.75;2.20;;;1.70;99.90;;;;;;5013241;28;20468;-65
2024/01/21 00:42:59;;;;;;;2.95;2.10;;;1.80;99.90;;;;;;5016317;28;20411;-65
2024/01/21 00:45:26;;;;;;;3.97;2.55;;;1.80;60.20;;;;;;5015793;28;20053;-65
2024/01/21 00:47:51;;;;;;;4.97;2.30;;;1.90;92.40;;;;;;5016485;28;20388;-65
2024/01/21 00:50:17;;;;;;;4.05;2.42;;;1.90;39.90;;;;;;5016404;28;20026;-65
2024/01/21 00:52:42;;;;;;;5.18;2.75;;;1.90;11.00;;;;;;5016709;28;20041;-65
2024/01/21 00:55:08;;;;;;;4.80;2.40;;;2.00;97.30;;;;;;5016754;28;20037;-65
2024/01/21 00:57:34;;;;;;;4.70;2.42;;;2.00;99.90;;;;;;5016516;28;20026;-66
2024/01/21 00:59:59;;;;;;;5.88;2.47;;;1.90;99.90;;;;;;5016609;28;20042;-65
2024/01/21 01:02:25;;;;;;;3.53;2.13;;;2.00;99.90;;;;;;5016609;28;20030;-65
2024/01/21 01:04:51;;;;;;;4.82;2.42;;;2.00;99.90;;;;;;5016417;28;20101;-65
2024/01/21 01:07:16;;;;;;;5.38;2.72;;;2.10;99.90;;;;;;5016409;28;20021;-66
2024/01/21 01:09:42;;;;;;;3.00;2.15;;;2.10;99.90;;;;;;5016466;28;20488;-65
2024/01/21 01:12:08;;;;;;;3.55;2.10;;;2.20;99.90;;;;;;5016423;28;20029;-66
2024/01/21 01:14:33;;;;;;;4.82;2.13;;;2.20;99.90;;;;;;5016415;28;20025;-65
2024/01/21 01:16:59;;;;;;;3.90;2.22;;;2.30;99.90;;;;;;5016290;28;20472;-66
2024/01/21 01:19:24;;;;;;;3.80;2.15;;;2.30;99.90;;;;;;5016140;28;20049;-65
2024/01/21 01:21:51;;;;;;;2.90;2.00;;;2.30;99.90;;;;;;5016269;28;20030;-65
2024/01/21 01:24:16;;;;;;;2.95;2.30;;;2.40;99.90;;;;;;5015878;28;20033;-65
2024/01/21 01:26:42;;;;;;;4.30;2.20;;;2.40;99.90;;;;;;5015843;28;20036;-65
2024/01/21 01:29:08;;;;;;;5.15;2.22;;;2.40;99.90;;;;;;5016101;28;20072;-65
2024/01/21 01:31:33;;;;;;;4.32;2.35;;;2.50;99.90;;;;;;5015846;28;20026;-65
2024/01/21 01:33:59;;;;;;;4.35;2.35;;;2.50;1.00;;;;;;5016100;28;20038;-65
2024/01/21 01:36:24;;;;;;;4.53;2.58;;;2.60;1.00;;;;;;5015812;28;20113;-65
2024/01/21 01:38:50;;;;;;;5.82;3.03;;;2.60;1.00;;;;;;5015999;28;20040;-65
2024/01/21 01:41:16;;;;;;;3.85;2.10;;;2.70;99.90;;;;;;5015752;28;20053;-65
2024/01/21 01:43:42;;;;;;;4.68;2.42;;;2.70;99.90;;;;;;5015600;28;20026;-65
2024/01/21 01:46:08;;;;;;;2.83;2.03;;;2.70;99.90;;;;;;5015823;28;20041;-65
2024/01/21 01:48:33;;;;;;;5.72;2.53;;;2.60;99.90;;;;;;5015521;28;20026;-65
2024/01/21 01:51:00;;;;;;;3.55;2.10;;;2.60;99.90;;;;;;5015736;28;20453;-65
2024/01/21 01:53:28;;;;;;;3.38;1.80;;;2.70;99.90;;;;;;5015046;28;20036;-65
2024/01/21 01:55:54;;;;;;;5.20;2.65;;;2.80;99.90;;;;;;5014478;28;20550;-65
2024/01/21 01:58:23;;;;;;;4.05;2.47;;;2.70;99.90;;;;;;5015433;28;20034;-66
2024/01/21 02:00:49;;;;;;;5.57;2.25;;;2.70;99.90;;;;;;5015568;28;20030;-65
2024/01/21 02:03:15;;;;;;;4.97;2.70;;;2.60;99.90;;;;;;5015323;28;20098;-65
2024/01/21 02:05:41;;;;;;;3.83;2.40;;;2.60;99.90;;;;;;5015240;28;20097;-65
2024/01/21 02:08:06;;;;;;;5.60;2.30;;;2.50;99.90;;;;;;5015343;28;20030;-65
2024/01/21 02:10:32;;;;;;;4.70;2.55;;;2.50;99.90;;;;;;5015339;28;20022;-65
2024/01/21 02:12:57;;;;;;;5.00;2.63;;;2.50;99.90;;;;;;5015106;28;20048;-65
2024/01/21 02:15:23;;;;;;;3.75;2.40;;;2.50;99.90;;;;;;5015078;28;20030;-65
2024/01/21 02:17:49;;;;;;;4.43;2.13;;;2.50;99.90;;;;;;5015260;28;20407;-65
2024/01/21 02:20:15;;;;;;;5.45;2.60;;;2.60;99.90;;;;;;5015269;28;20093;-66
2024/01/21 02:22:41;;;;;;;4.13;2.70;;;2.50;99.90;;;;;;5014986;28;20064;-65
2024/01/21 02:25:07;;;;;;;3.63;2.20;;;2.60;99.90;;;;;;5014881;28;20108;-65
2024/01/21 02:27:33;;;;;;;5.75;2.80;;;2.60;99.90;;;;;;5014746;28;20022;-65
2024/01/21 02:29:59;;;;;;;5.00;3.08;;;2.60;99.90;;;;;;5014737;28;20033;-66
2024/01/21 02:32:25;;;;;;;5.35;2.60;;;2.60;99.90;;;;;;5014806;28;20026;-66
2024/01/21 02:34:50;;;;;;;5.55;2.80;;;2.60;1.00;;;;;;5014912;28;20034;-65
2024/01/21 02:37:16;;;;;;;4.07;2.47;;;2.60;99.90;;;;;;5014568;28;20397;-66
2024/01/21 02:39:41;;;;;;;4.55;2.60;;;2.70;99.90;;;;;;5014563;28;20033;-65
2024/01/21 02:42:07;;;;;;;5.63;2.63;;;2.70;99.90;;;;;;5014346;28;20030;-66
2024/01/21 02:44:32;;;;;;;4.15;2.90;;;2.70;99.90;;;;;;5014352;28;20040;-65
2024/01/21 02:46:58;;;;;;;5.57;2.53;;;2.70;99.90;;;;;;5014512;28;20071;-65
2024/01/21 02:49:28;;;;;;;3.75;2.60;;;2.70;99.90;;;;;;5014490;28;20029;-65
2024/01/21 02:51:53;;;;;;;4.50;2.47;;;2.70;99.90;;;;;;5014395;28;20026;-65
2024/01/21 02:54:19;;;;;;;5.63;2.80;;;2.70;99.90;;;;;;5014588;28;20105;-65
2024/01/21 02:56:44;;;;;;;4.72;2.58;;;2.60;99.90;;;;;;5014561;28;20022;-65
2024/01/21 02:59:10;;;;;;;5.60;2.95;;;2.70;99.90;;;;;;5014205;28;20030;-66
2024/01/21 03:01:35;;;;;;;6.65;2.63;;;2.60;99.90;;;;;;5014431;28;20030;-65
2024/01/21 03:04:01;;;;;;;6.05;3.30;;;2.70;99.90;;;;;;5013373;28;20077;-65
2024/01/21 03:06:26;;;;;;;5.40;2.88;;;2.60;99.90;;;;;;5014142;28;20033;-65
2024/01/21 03:08:52;;;;;;;4.20;2.65;;;2.70;99.90;;;;;;5014373;28;20096;-66
2024/01/21 03:11:17;;;;;;;5.32;2.95;;;2.80;99.90;;;;;;5013856;28;20025;-66
2024/01/21 03:13:43;;;;;;;5.10;2.53;;;2.80;99.90;;;;;;5014036;28;20029;-65
2024/01/21 03:16:10;;;;;;;7.15;3.03;;;2.90;99.90;;;;;;5014176;28;20030;-65
2024/01/21 03:18:38;;;;;;;5.38;2.78;;;3.00;99.90;;;;;;5013950;28;20109;-65
2024/01/21 03:21:05;;;;;;;4.95;2.58;;;3.10;99.90;;;;;;5013910;28;20389;-65
2024/01/21 03:23:31;;;;;;;6.68;3.15;;;2.90;99.90;;;;;;5013723;28;20036;-65
2024/01/21 03:25:56;;;;;;;6.32;2.88;;;3.00;99.90;;;;;;5013889;28;20022;-65
2024/01/21 03:28:22;;;;;;;5.75;3.00;;;2.90;99.90;;;;;;5013942;28;20159;-66
2024/01/21 03:30:47;;;;;;;4.15;2.65;;;2.90;99.90;;;;;;5013990;28;20025;-65
2024/01/21 03:33:13;;;;;;;3.75;2.55;;;3.00;99.90;;;;;;5013868;28;20105;-65
2024/01/21 03:35:38;;;;;;;5.03;2.58;;;3.10;99.90;;;;;;5013700;28;20025;-65
2024/01/21 03:38:04;;;;;;;4.18;2.90;;;3.10;99.90;;;;;;5013842;28;20105;-65
2024/01/21 03:40:30;;;;;;;3.17;2.38;;;3.10;99.90;;;;;;5013846;28;20121;-66
2024/01/21 03:42:55;;;;;;;5.00;2.35;;;3.10;99.90;;;;;;5013354;28;20414;-65
2024/01/21 03:45:20;;;;;;;4.80;2.53;;;3.10;99.90;;;;;;5013631;28;20072;-65
2024/01/21 03:47:46;;;;;;;3.10;2.10;;;3.10;99.90;;;;;;5013618;28;20064;-66
2024/01/21 03:50:12;;;;;;;4.53;2.65;;;3.10;99.90;;;;;;5013673;28;20030;-65
2024/01/21 03:52:37;;;;;;;4.43;2.22;;;3.10;99.90;;;;;;5013416;28;20114;-65
2024/01/21 03:55:04;;;;;;;3.83;2.58;;;3.30;99.90;;;;;;5013492;28;20030;-65
2024/01/21 03:57:29;;;;;;;4.57;2.70;;;3.30;99.90;;;;;;5013435;28;20022;-65
2024/01/21 03:59:55;;;;;;;4.18;2.25;;;3.30;99.90;;;;;;5013514;28;20052;-65
2024/01/21 04:02:22;;;;;;;3.70;2.28;;;3.30;99.90;;;;;;5013414;28;20030;-65
2024/01/21 04:04:48;;;;;;;4.05;2.40;;;3.40;99.90;;;;;;5013505;28;20030;-65
2024/01/21 04:07:13;;;;;;;3.78;2.53;;;3.40;99.90;;;;;;5013430;28;20105;-65
2024/01/21 04:09:39;;;;;;;3.83;2.50;;;3.40;99.90;;;;;;5013517;28;20081;-65
2024/01/21 04:12:04;;;;;;;3.95;2.30;;;3.40;99.90;;;;;;5013524;28;20030;-65
2024/01/21 04:14:30;;;;;;;5.50;2.00;;;3.40;99.90;;;;;;5013311;28;20088;-65
2024/01/21 04:16:55;;;;;;;4.22;2.50;;;3.40;99.90;;;;;;5017316;28;20044;-65
2024/01/21 04:19:21;;;;;;;5.13;2.67;;;3.50;99.90;;;;;;5017270;28;20480;-65
2024/01/21 04:21:46;;;;;;;3.35;2.25;;;3.40;99.90;;;;;;5017347;28;20029;-66
2024/01/21 04:24:12;;;;;;;3.10;2.35;;;3.40;99.90;;;;;;5017080;28;20033;-65
2024/01/21 04:26:37;;;;;;;5.18;2.17;;;3.60;52.90;;;;;;5017078;28;20105;-65
2024/01/21 04:29:03;;;;;;;3.42;2.10;;;3.60;99.90;;;;;;5017071;28;20026;-65
2024/01/21 04:31:28;;;;;;;4.18;2.10;;;3.60;99.90;;;;;;5017084;28;20080;-65
2024/01/21 04:33:54;;;;;;;4.32;2.63;;;3.80;99.90;;;;;;5016979;28;20189;-65
2024/01/21 04:36:22;;;;;;;6.32;1.98;;;4.00;99.90;;;;;;5017048;28;20057;-65
2024/01/21 04:38:48;;;;;;;2.70;1.90;;;4.20;99.90;;;;;;5017172;28;20425;-65
2024/01/21 04:41:14;;;;;;;6.22;2.55;;;4.20;99.90;;;;;;5016701;28;20069;-66
2024/01/21 04:43:40;;;;;;;5.18;2.35;;;4.20;99.90;;;;;;5016714;28;20038;-66
2024/01/21 04:46:06;;;;;;;4.45;2.10;;;4.20;99.90;;;;;;5016516;28;20483;-65
2024/01/21 04:48:32;;;;;;;4.05;2.03;;;4.10;99.90;;;;;;5016733;28;20036;-65
2024/01/21 04:50:58;;;;;;;5.47;2.22;;;4.00;99.90;;;;;;5015735;28;20545;-65
2024/01/21 04:53:24;;;;;;;3.28;1.90;;;4.00;99.90;;;;;;5016848;28;20063;-65
2024/01/21 04:55:49;;;;;;;4.93;2.17;;;4.10;99.90;;;;;;5016775;28;20061;-65
2024/01/21 04:58:15;;;;;;;5.30;2.38;;;4.00;99.90;;;;;;5016669;28;20084;-65
2024/01/21 05:00:40;;;;;;;4.63;2.33;;;3.90;99.90;;;;;;5016469;28;20069;-65
2024/01/21 05:03:06;;;;;;;6.60;2.30;;;4.00;99.90;;;;;;5016372;28;20030;-66
2024/01/21 05:05:31;;;;;;;4.85;2.00;;;3.90;99.90;;;;;;5016593;28;20491;-66
2024/01/21 05:07:57;;;;;;;3.33;2.50;;;3.90;99.90;;;;;;5016589;28;20017;-65
2024/01/21 05:10:23;;;;;;;5.90;2.28;;;3.80;99.90;;;;;;5016314;28;20026;-66
2024/01/21 05:12:49;;;;;;;4.93;2.10;;;3.80;99.90;;;;;;5016438;28;20120;-65
2024/01/21 05:15:14;;;;;;;3.47;1.95;;;3.80;99.90;;;;;;5016671;28;20488;-65
2024/01/21 05:17:40;;;;;;;3.22;2.28;;;3.80;99.90;;;;;;5016298;28;20030;-66
2024/01/21 05:20:08;;;;;;;3.42;2.30;;;3.90;99.90;;;;;;5015884;28;20022;-65
2024/01/21 05:22:34;;;;;;;4.03;2.20;;;3.90;99.90;;;;;;5016090;28;21885;-65
2024/01/21 05:24:59;;;;;;;3.97;2.45;;;3.90;99.90;;;;;;5016251;28;20092;-66
2024/01/21 05:27:25;;;;;;;4.38;2.30;;;3.80;99.90;;;;;;5015179;28;20048;-65
2024/01/21 05:29:50;;;;;;;4.07;2.22;;;3.80;96.50;;;;;;5016177;28;20040;-66
2024/01/21 05:32:16;;;;;;;3.67;2.22;;;3.80;70.80;;;;;;5016168;28;20100;-65
2024/01/21 05:34:41;;;;;;;3.67;2.10;;;3.90;93.00;;;;;;5015831;28;20061;-65
2024/01/21 05:37:07;;;;;;;3.92;1.80;;;3.90;41.80;;;;;;5015845;28;20029;-65
2024/01/21 05:39:32;;;;;;;3.30;2.00;;;3.80;19.90;;;;;;5015784;28;20061;-66
2024/01/21 05:42:05;;;;;;;4.60;2.13;;;3.70;48.40;;;;;;5015562;28;20053;-65
2024/01/21 05:44:32;;;;;;;4.05;1.75;;;3.70;58.10;;;;;;5015613;28;20065;-65
2024/01/21 05:46:57;;;;;;;4.05;2.20;;;3.60;32.50;;;;;;5014555;28;20396;-65
2024/01/21 05:49:23;;;;;;;3.17;2.08;;;3.60;14.60;;;;;;5015640;28;20026;-65
2024/01/21 05:51:49;;;;;;;4.82;2.20;;;3.70;8.50;;;;;;5015496;28;20503;-65
2024/01/21 05:54:16;;;;;;;2.90;1.92;;;3.80;1.00;;;;;;5015625;28;20400;-65
2024/01/21 05:56:42;;;;;;;3.85;2.33;;;3.80;6.10;;;;;;5015569;28;20026;-65
2024/01/21 05:59:07;;;;;;;3.00;1.90;;;3.80;20.30;;;;;;5015406;28;20033;-65
2024/01/21 06:01:33;;;;;;;4.75;2.10;;;3.80;26.70;;;;;;5015546;28;20034;-65
2024/01/21 06:03:58;;;;;;;4.30;2.45;;;3.80;8.70;;;;;;5015213;28;20033;-65
2024/01/21 06:06:24;;;;;;;4.10;2.15;;;3.80;13.50;;;;;;5015284;28;20395;-65
2024/01/21 06:08:49;;;;;;;3.05;2.30;;;3.80;17.60;;;;;;5015561;28;20029;-65
2024/01/21 06:11:15;;;;;;;4.22;2.50;;;3.90;34.10;;;;;;5015367;28;20026;-65
2024/01/21 06:13:40;;;;;;;3.72;2.35;;;3.80;1.00;;;;;;5015118;28;20034;-65
2024/01/21 06:16:06;;;;;;;3.72;2.55;;;3.70;1.30;;;;;;5015373;28;20034;-65
2024/01/21 06:18:31;;;;;;;3.35;2.20;;;3.60;1.00;;;;;;5015230;28;20069;-65
2024/01/21 06:20:57;;;;;;;3.78;2.15;;;3.70;1.00;;;;;;5015023;28;20032;-65
2024/01/21 06:23:23;;;;;;;3.90;2.55;;;3.70;1.00;;;;;;5015023;28;20080;-66
2024/01/21 06:25:49;;;;;;;4.47;2.60;;;3.80;1.00;;;;;;5015193;28;20029;-65
2024/01/21 06:28:14;;;;;;;4.85;2.55;;;3.80;13.50;;;;;;5014853;28;20026;-65
2024/01/21 06:30:40;;;;;;;4.00;2.53;;;3.90;1.00;;;;;;5015056;28;20479;-65
2024/01/21 06:33:05;;;;;;;5.07;2.70;;;3.90;1.00;;;;;;5014572;28;20028;-65
2024/01/21 06:35:31;;;;;;;3.75;2.20;;;3.90;1.00;;;;;;5014958;28;20109;-65
2024/01/21 06:37:56;;;;;;;4.47;2.65;;;3.90;1.00;;;;;;5014762;28;20030;-65
2024/01/21 06:40:22;;;;;;;4.35;2.40;;;3.90;1.00;;;;;;5014956;28;20103;-66
2024/01/21 06:42:48;;;;;;;5.80;3.15;;;3.90;1.00;;;;;;5014411;28;20050;-65
2024/01/21 06:45:13;;;;;;;4.30;2.78;;;3.80;1.00;;;;;;5014296;28;20021;-65
2024/01/21 06:47:41;;;;;;;5.05;2.80;;;3.80;1.00;;;;;;5014343;28;20475;-65
2024/01/21 06:50:07;;;;;;;3.63;2.45;;;3.60;1.00;;;;;;5014463;28;20538;-65
2024/01/21 06:52:32;;;;;;;7.07;3.17;;;3.60;1.00;;;;;;5014390;28;20022;-65
2024/01/21 06:54:58;;;;;;;4.20;2.80;;;3.60;1.00;;;;;;5014584;28;20065;-65
2024/01/21 06:57:24;;;;;;;4.88;2.58;;;3.50;1.00;;;;;;5014355;28;20026;-65
2024/01/21 06:59:51;;;;;;;3.65;2.88;;;3.40;1.00;;;;;;5014356;28;20026;-65
2024/01/21 07:02:17;;;;;;;5.05;2.70;;;3.30;1.00;;;;;;5014371;28;20080;-65
2024/01/21 07:04:42;;;;;;;4.88;2.95;;;3.30;1.00;;;;;;5014071;28;20400;-65
2024/01/21 07:07:08;;;;;;;6.32;2.92;;;3.30;1.00;;;;;;5014187;28;20040;-66
2024/01/21 07:09:34;;;;;;;6.97;3.10;;;3.30;1.00;;;;;;5014032;28;20042;-65
2024/01/21 07:12:00;;;;;;;6.10;3.35;;;3.30;1.00;;;;;;5013171;28;20022;-66
2024/01/21 07:14:25;;;;;;;6.18;3.00;;;3.30;1.00;;;;;;5014292;28;20028;-66
2024/01/21 07:16:51;;;;;;;6.10;3.00;;;3.30;1.00;;;;;;5014364;28;20029;-65
2024/01/21 07:19:16;;;;;;;6.53;2.90;;;3.20;1.00;;;;;;5014309;28;20039;-65
2024/01/21 07:21:42;;;;;;;7.82;3.45;;;3.20;1.00;;;;;;5013910;28;20105;-65
2024/01/21 07:24:08;;;;;;;8.02;3.38;;;3.20;1.00;;;;;;5013595;28;20449;-66
2024/01/21 07:26:33;;;;;;;6.30;3.03;;;3.20;99.90;;;;;;5013835;28;20392;-65
2024/01/21 07:28:59;;;;;;;7.25;3.42;;;3.10;1.00;;;;;;5013661;28;20030;-65
2024/01/21 07:31:24;;;;;;;6.30;3.33;;;3.10;1.00;;;;;;5014019;28;20036;-65
2024/01/21 07:33:50;;;;;;;6.43;3.42;;;3.20;1.00;;;;;;5013799;28;20061;-65
2024/01/21 07:36:16;;;;;;;6.85;3.72;;;3.10;1.00;;;;;;5014206;28;20030;-65
2024/01/21 07:38:42;;;;;;;5.38;3.28;;;3.20;1.00;;;;;;5013663;28;20396;-65
2024/01/21 07:41:07;;;;;;;7.15;4.00;;;3.20;1.00;;;;;;5013453;28;20125;-66
2024/01/21 07:43:33;;;;;;;8.07;3.90;;;3.10;1.00;;;;;;5013547;28;20054;-65
2024/01/21 07:45:58;;;;;;;11.88;4.07;;;3.10;1.00;;;;;;5013616;28;20121;-66
2024/01/21 07:48:24;;;;;;;8.57;3.35;;;3.10;1.00;;;;;;5013397;28;20468;-66
2024/01/21 07:50:50;;;;;;;5.72;3.63;;;3.20;1.00;;;;;;5013298;28;20033;-65
2024/01/21 07:53:19;;;;;;;7.88;3.88;;;3.40;1.00;;;;;;5013718;28;20034;-65
2024/01/21 07:55:44;;;;;;;6.80;3.90;;;3.40;1.00;;;;;;5013690;28;20030;-65
2024/01/21 07:58:10;;;;;;;8.02;4.20;;;3.40;1.00;;;;;;5013558;28;20041;-65
2024/01/21 08:00:36;;;;;;;7.28;3.88;;;3.60;1.00;;;;;;5013435;28;20100;-65
2024/01/21 08:03:02;;;;;;;6.63;3.75;;;3.70;1.00;;;;;;5013359;28;20130;-65
2024/01/21 08:05:28;;;;;;;6.97;3.83;;;3.70;1.00;;;;;;5013429;28;20101;-65
2024/01/21 08:07:53;;;;;;;7.45;3.72;;;3.80;1.00;;;;;;5013466;28;20531;-65
2024/01/21 08:10:19;;;;;;;7.47;4.25;;;3.70;1.00;;;;;;5013285;28;20030;-65
2024/01/21 08:12:44;;;;;;;8.05;3.88;;;3.80;1.00;;;;;;5013276;28;20407;-65
2024/01/21 08:15:10;;;;;;;10.23;4.90;;;3.70;1.00;;;;;;5013333;28;20034;-65
2024/01/21 08:17:35;;;;;;;10.18;4.93;;;3.80;1.00;;;;;;5013493;28;20057;-66
2024/01/21 08:20:01;;;;;;;8.38;4.50;;;3.80;1.00;;;;;;5013290;28;20510;-65
2024/01/21 08:22:26;;;;;;;8.02;4.65;;;3.80;1.00;;;;;;5013163;28;20519;-65
2024/01/21 08:24:54;;;;;;;8.82;4.78;;;3.90;1.00;;;;;;5013208;28;20419;-65
2024/01/21 08:27:20;;;;;;;8.30;4.82;;;3.90;1.00;;;;;;5013361;28;20029;-65
2024/01/21 08:29:45;;;;;;;9.70;4.65;;;3.90;1.00;;;;;;5013322;28;20484;-65
2024/01/21 08:32:11;;;;;;;7.70;4.47;;;3.90;1.00;;;;;;5013311;28;20553;-66
2024/01/21 08:34:38;;;;;;;7.85;4.70;;;3.90;1.00;;;;;;5013171;28;20088;-66
2024/01/21 08:37:04;;;;;;;8.27;4.70;;;3.90;1.00;;;;;;5013133;28;20030;-66
2024/01/21 08:39:29;;;;;;;8.68;4.88;;;3.90;1.00;;;;;;5013243;28;20611;-65
2024/01/21 08:41:55;;;;;;;9.43;4.97;;;3.90;1.00;;;;;;5012954;28;20052;-65
2024/01/21 08:44:21;;;;;;;7.78;4.78;;;3.90;1.00;;;;;;5012957;28;20046;-65
2024/01/21 08:46:46;;;;;;;11.30;5.57;;;4.00;1.00;;;;;;5013201;28;20109;-65
2024/01/21 08:49:12;;;;;;;9.07;4.47;;;3.90;1.00;;;;;;5012952;28;20019;-65
2024/01/21 08:51:37;;;;;;;10.80;5.40;;;3.90;1.00;;;;;;5012852;28;20455;-65
2024/01/21 08:54:03;;;;;;;10.02;5.03;;;4.00;1.00;;;;;;5012956;28;20022;-65
2024/01/21 08:56:29;;;;;;;9.45;5.18;;;4.00;1.00;;;;;;5013126;28;20068;-65
2024/01/21 08:58:55;;;;;;;11.93;5.40;;;4.00;1.00;;;;;;5013153;28;20030;-65
2024/01/21 09:01:21;;;;;;;11.40;5.35;;;4.00;1.00;;;;;;5012906;28;20401;-65
2024/01/21 09:03:46;;;;;;;8.77;5.18;;;4.00;1.00;;;;;;5015981;28;20026;-65
2024/01/21 09:06:12;;;;;;;10.02;5.15;;;4.10;1.00;;;;;;5016561;28;20026;-65
2024/01/21 09:08:38;;;;;;;11.57;6.05;;;4.10;1.00;;;;;;5015393;28;20034;-65
2024/01/21 09:11:03;;;;;;;9.27;5.53;;;4.10;1.00;;;;;;5016543;28;20033;-65
2024/01/21 09:13:29;;;;;;;10.73;5.45;;;4.10;1.00;;;;;;5016027;28;20365;-65
2024/01/21 09:15:55;;;;;;;12.77;6.32;;;4.10;1.00;;;;;;5016431;28;20030;-65
2024/01/21 09:18:22;;;;;;;9.32;5.57;;;4.10;1.00;;;;;;5015124;28;20033;-65
2024/01/21 09:20:47;;;;;;;9.57;5.32;;;4.20;1.00;;;;;;5016261;28;20510;-65
2024/01/21 09:23:13;;;;;;;13.32;5.30;;;4.20;1.00;;;;;;5016002;28;20034;-65
2024/01/21 09:25:39;;;;;;;8.73;5.25;;;4.20;1.00;;;;;;5016029;28;20037;-65
2024/01/21 09:28:05;;;;;;;9.82;5.40;;;4.20;1.00;;;;;;5015812;28;20415;-66
2024/01/21 09:30:31;;;;;;;9.00;5.60;;;4.20;1.00;;;;;;5015957;28;20041;-66
2024/01/21 09:32:57;;;;;;;10.68;5.75;;;4.20;1.00;;;;;;5015959;28;20040;-65
2024/01/21 09:35:22;;;;;;;9.65;5.57;;;4.20;1.00;;;;;;5016202;28;20029;-65
2024/01/21 09:37:48;;;;;;;10.23;5.90;;;4.20;1.00;;;;;;5016077;28;20523;-65
2024/01/21 09:40:14;;;;;;;10.77;6.18;;;4.20;1.00;;;;;;5015778;28;20026;-65
2024/01/21 09:42:40;;;;;;;10.57;5.80;;;4.20;1.00;;;;;;5015413;28;20049;-66
2024/01/21 09:45:09;;;;;;;14.52;5.85;;;4.30;1.00;;;;;;5015689;28;20033;-66
2024/01/21 09:47:36;;;;;;;12.43;6.50;;;4.40;1.00;;;;;;5015691;28;20026;-66
2024/01/21 09:50:03;;;;;;;12.43;6.05;;;4.50;1.00;;;;;;5014510;28;20384;-65
2024/01/21 09:52:28;;;;;;;11.95;6.25;;;4.60;1.00;;;;;;5015810;28;20080;-66
2024/01/21 09:54:54;;;;;;;10.13;6.28;;;4.70;1.00;;;;;;5015669;28;20480;-65
2024/01/21 09:57:19;;;;;;;11.00;6.20;;;4.80;1.00;;;;;;5015599;28;20397;-66
2024/01/21 09:59:47;;;;;;;12.05;6.35;;;5.00;1.00;;;;;;5015575;28;20454;-65
2024/01/21 10:02:16;;;;;;;16.02;6.53;;;5.10;1.00;;;;;;5015366;28;20028;-66
2024/01/21 10:04:44;;;;;;;12.02;6.82;;;5.00;1.00;;;;;;5015213;28;20034;-65
2024/01/21 10:07:11;;;;;;;12.30;6.43;;;5.00;1.00;;;;;;5015279;28;20029;-65
2024/01/21 10:09:37;;;;;;;12.05;6.68;;;5.00;1.00;;;;;;5015275;28;20492;-65
2024/01/21 10:12:03;;;;;;;10.75;6.38;;;5.00;1.00;;;;;;5015434;28;20105;-66
2024/01/21 10:14:31;;;;;;;13.85;6.95;;;5.20;1.00;;;;;;5014914;28;20083;-66
2024/01/21 10:16:56;;;;;;;12.88;6.15;;;5.10;1.00;;;;;;5014240;28;20033;-65
2024/01/21 10:19:34;;;;;;;11.10;6.47;;;5.30;1.00;;;;;;5015193;28;20163;-65
2024/01/21 10:22:09;;;;;;;11.93;6.60;;;5.10;1.00;;;;;;5013888;28;20026;-66
2024/01/21 10:24:43;;;;;;;12.07;6.90;;;5.00;1.00;;;;;;5013627;28;20550;-66
2024/01/21 10:27:10;;;;;;;13.73;7.50;;;5.10;1.00;;;;;;5014947;28;20026;-66
2024/01/21 10:29:41;;;;;;;14.43;7.57;;;5.00;1.00;;;;;;5013540;28;20075;-66
2024/01/21 10:32:07;;;;;;;12.82;6.82;;;4.90;1.00;;;;;;5014986;28;20025;-65
2024/01/21 10:34:32;;;;;;;13.07;6.82;;;4.80;1.00;;;;;;5014758;28;20029;-65
2024/01/21 10:37:03;;;;;;;11.45;6.50;;;4.90;1.00;;;;;;5014693;28;20100;-66
2024/01/21 10:39:32;;;;;;;14.15;7.20;;;5.00;1.00;;;;;;5013495;28;20072;-65
2024/01/21 10:42:00;;;;;;;12.05;6.30;;;4.90;1.00;;;;;;5014508;28;20065;-65
2024/01/21 10:44:27;;;;;;;14.85;7.20;;;4.80;1.00;;;;;;5013528;28;20038;-65
2024/01/21 10:46:54;;;;;;;14.82;6.38;;;4.80;1.00;;;;;;5014551;28;20026;-65
2024/01/21 10:49:20;;;;;;;10.68;6.63;;;4.90;1.00;;;;;;5014785;28;20037;-65
2024/01/21 10:51:46;;;;;;;12.95;6.88;;;5.00;1.00;;;;;;5014398;28;20022;-65
2024/01/21 10:54:13;;;;;;;11.35;7.13;;;5.30;1.00;;;;;;5014550;28;20108;-65
2024/01/21 10:56:40;;;;;;;10.85;6.38;;;5.40;1.00;;;;;;5014569;28;20558;-66
2024/01/21 10:59:06;;;;;;;12.85;7.30;;;5.50;1.00;;;;;;5014543;28;20057;-65
2024/01/21 11:01:33;;;;;;;11.38;6.90;;;5.50;1.00;;;;;;5014345;28;20030;-65
2024/01/21 11:04:10;;;;;;;12.95;6.78;;;5.50;1.00;;;;;;5014215;28;20065;-65
2024/01/21 11:06:35;;;;;;;14.30;7.20;;;5.50;1.00;;;;;;5014137;28;20033;-65
2024/01/21 11:09:03;;;;;;;12.63;6.93;;;5.40;1.00;;;;;;5014365;28;20034;-65
2024/01/21 11:11:29;;;;;;;13.88;7.45;;;5.20;1.00;;;;;;5014150;28;20037;-65
2024/01/21 11:13:56;;;;;;;14.38;7.43;;;5.20;1.00;;;;;;5013902;28;20112;-65
2024/01/21 11:19:09;;;;;;;13.82;7.63;;;5.20;1.00;;;;;;5070411;28;20437;-65
2024/01/21 11:21:40;;;;;;;12.90;7.40;;;5.00;14.50;;;;;;5070418;28;20033;-65
2024/01/21 11:24:13;;;;;;;15.18;8.05;;;4.90;82.80;;;;;;5070362;28;20056;-65
2024/01/21 11:26:41;;;;;;;13.88;7.57;;;4.90;99.90;;;;;;5070669;28;20517;-65
2024/01/21 11:29:28;;;;;;;13.07;7.13;;;4.80;99.90;;;;;;5070447;28;20060;-65
2024/01/21 11:32:01;;;;;;;12.70;7.53;;;4.80;93.40;;;;;;5070611;28;20025;-65
2024/01/21 11:34:30;;;;;;;13.95;7.55;;;4.90;99.90;;;;;;5070182;28;20648;-65
2024/01/21 11:36:56;;;;;;;14.75;7.50;;;4.90;1.00;;;;;;5070098;28;20028;-65
2024/01/21 11:39:22;;;;;;;14.48;7.18;;;5.00;1.00;;;;;;5070398;28;20536;-65
2024/01/21 11:41:48;;;;;;;12.27;7.35;;;5.00;1.00;;;;;;5070123;28;20085;-65
2024/01/21 11:44:18;;;;;;;14.77;7.93;;;4.90;1.00;;;;;;5070106;28;20033;-64
2024/01/21 11:46:44;;;;;;;16.52;8.20;;;4.90;1.00;;;;;;5070276;28;20070;-64
2024/01/21 11:49:10;;;;;;;15.75;8.32;;;4.90;1.00;;;;;;5070010;28;20028;-64
2024/01/21 11:51:37;;;;;;;15.75;7.95;;;4.80;22.60;;;;;;5069957;28;20028;-64
2024/01/21 11:54:03;;;;;;;13.25;7.97;;;4.80;56.70;;;;;;5070014;28;20025;-64
2024/01/21 11:56:28;;;;;;;20.23;8.93;;;4.90;92.30;;;;;;5070158;28;20129;-64
2024/01/21 11:58:54;;;;;;;14.45;8.10;;;4.90;52.60;;;;;;5069874;28;20440;-64
2024/01/21 12:01:20;;;;;;;15.35;8.18;;;4.90;99.90;;;;;;5069875;28;20036;-65
2024/01/21 12:03:48;;;;;;;14.32;8.25;;;4.90;99.90;;;;;;5069430;28;20024;-65
2024/01/21 12:06:15;;;;;;;15.93;8.00;;;5.00;99.90;;;;;;5069528;28;20025;-64
2024/01/21 12:08:43;;;;;;;12.30;7.50;;;5.00;99.90;;;;;;5069563;28;20028;-65
2024/01/21 12:11:09;;;;;;;12.48;7.55;;;5.10;1.00;;;;;;5069369;28;20074;-65
2024/01/21 12:13:36;;;;;;;13.77;7.57;;;5.20;13.20;;;;;;5069470;28;20033;-65
2024/01/21 12:16:01;;;;;;;18.27;8.50;;;5.20;99.90;;;;;;5069487;28;20056;-65
2024/01/21 12:18:27;;;;;;;16.98;8.57;;;5.10;1.00;;;;;;5069183;28;20541;-65
2024/01/21 12:20:55;;;;;;;18.75;8.55;;;5.10;1.00;;;;;;5069599;28;20380;-65
2024/01/21 12:23:22;;;;;;;14.60;8.35;;;5.10;68.70;;;;;;5069199;28;20027;-65
2024/01/21 12:25:48;;;;;;;16.60;8.68;;;5.20;99.90;;;;;;5069308;28;20085;-64
2024/01/21 12:28:14;;;;;;;15.73;8.30;;;5.20;99.90;;;;;;5068864;28;20521;-64
2024/01/21 12:30:39;;;;;;;15.18;8.25;;;5.30;99.90;;;;;;5054324;28;20033;-67
2024/01/21 12:33:05;;;;;;;13.10;7.72;;;5.20;99.90;;;;;;5055909;28;20055;-65
2024/01/21 12:35:31;;;;;;;14.00;8.13;;;5.20;1.00;;;;;;5055925;28;20066;-65
2024/01/21 12:37:58;;;;;;;15.55;8.18;;;5.00;22.70;;;;;;5055937;28;20037;-64
2024/01/21 12:40:23;;;;;;;17.40;8.18;;;5.00;39.30;;;;;;5054636;28;20021;-64
2024/01/21 12:42:49;;;;;;;15.38;7.85;;;5.10;99.90;;;;;;5055883;28;20033;-65
2024/01/21 12:45:14;;;;;;;18.35;7.90;;;5.10;1.00;;;;;;5055677;28;20039;-64
2024/01/21 12:47:40;;;;;;;15.70;8.35;;;5.00;99.90;;;;;;5055784;28;20070;-64
2024/01/21 12:50:08;;;;;;;15.73;8.63;;;5.00;1.00;;;;;;5055558;28;20077;-65
2024/01/21 12:52:34;;;;;;;14.82;8.18;;;4.90;1.00;;;;;;5055579;28;20529;-65
2024/01/21 12:54:59;;;;;;;12.38;7.90;;;4.90;1.00;;;;;;5055707;28;20029;-65
2024/01/21 12:57:25;;;;;;;15.23;7.97;;;4.80;99.90;;;;;;5055606;28;20446;-65